Aérodrome :
LOGIN :

S'inscrire | Disclaimer

   EN    FR    IT 

 










Légende :    VFR   VFR Marginal   IFR   IFR Intensif   IFR Très Intensif
Visi : 
Plafond : 
>= 8 km
>= 3000ft
5 à 8 km
1000 à 3000 ft
1500m à 5 km
500 à 1000 ft
800 à 1500m
200 à 500 ft
< 800m
< 200 ft
Symboles :   Orages  Brouillard  Fortes neiges  Fortes précipitations  Vent > 20 kt
SIGMETs :   Divers  Orages  Givrage  Turbulence  Onde Orograph.  Cendres Volcan.






- Altitude de l'aérodrome : 194 ft
- Code IATA : IEG


EPZG - Zielona Gora Babimost

DERNIER METAR :
  • 190700Z 25009KT 220V280 9999 FEW011 20/19 Q1012

METARs EXPIRÉS :
  • 190630Z 23010KT 9999 FEW010 19/19 Q1011
  • 190600Z 26009KT 230V290 9999 BKN010 19/19 Q1011
  • 190530Z 23006KT 200V260 9999 FEW015 19/19 Q1011
  • 190500Z 20005KT CAVOK 18/18 Q1010
  • 190430Z 20009KT CAVOK 18/18 Q1011
  • 190400Z 21005KT CAVOK 17/17 Q1011
  • 190330Z 24003KT CAVOK 16/16 Q1010
  • 190300Z 22004KT 180V260 CAVOK 16/16 Q1010

TAF TAF EPZG
Valide du 19 à 06h jusqu'au 19 à 15h UTC


190530Z 1906/1915 20004KT CAVOK
BECMG 1906/1909 27010KT
TEMPO 1906/1915 -SHRA BKN025CB



MET'MAP, la Météo Aéronautique d'un coup d'oeil ! - Copyright ORBIFLY Décembre 2007 - Disclaimer

ORBIFLY MET'MAP TEAM :

Programmation & Développement : Alexandra Zaïnal
Sur une idée originale de : Baudouin d'Aumeries
Soutien technique & logistique : Manuel Goepfert
Assistance : Marc-Olivier Méhu




SOURCES & CREDITS :

   NOAA